sensor_id;sensor_type;location;lat;lon;timestamp;P1;durP1;ratioP1;P2;durP2;ratioP2
70927;SDS011;58587;53.034;18.576;2024-02-21T00:02:02;20.13;;;4.80;;
70927;SDS011;58587;53.034;18.576;2024-02-21T00:04:27;15.50;;;5.00;;
70927;SDS011;58587;53.034;18.576;2024-02-21T00:06:53;20.90;;;5.57;;
70927;SDS011;58587;53.034;18.576;2024-02-21T00:09:18;15.00;;;5.07;;
70927;SDS011;58587;53.034;18.576;2024-02-21T00:11:44;15.95;;;5.28;;
70927;SDS011;58587;53.034;18.576;2024-02-21T00:14:09;16.03;;;4.43;;
70927;SDS011;58587;53.034;18.576;2024-02-21T00:16:35;15.80;;;4.60;;
70927;SDS011;58587;53.034;18.576;2024-02-21T00:19:01;19.20;;;4.77;;
70927;SDS011;58587;53.034;18.576;2024-02-21T00:21:26;18.25;;;4.75;;
70927;SDS011;58587;53.034;18.576;2024-02-21T00:23:52;22.60;;;5.05;;
70927;SDS011;58587;53.034;18.576;2024-02-21T00:26:17;15.20;;;5.17;;
70927;SDS011;58587;53.034;18.576;2024-02-21T00:28:42;15.90;;;4.43;;
70927;SDS011;58587;53.034;18.576;2024-02-21T00:31:08;16.00;;;4.20;;
70927;SDS011;58587;53.034;18.576;2024-02-21T00:33:33;19.95;;;5.00;;
70927;SDS011;58587;53.034;18.576;2024-02-21T00:35:59;22.07;;;5.87;;
70927;SDS011;58587;53.034;18.576;2024-02-21T00:38:24;21.23;;;5.30;;
70927;SDS011;58587;53.034;18.576;2024-02-21T00:40:50;19.10;;;5.20;;
70927;SDS011;58587;53.034;18.576;2024-02-21T00:43:15;13.63;;;5.63;;
70927;SDS011;58587;53.034;18.576;2024-02-21T00:45:40;21.80;;;4.73;;
70927;SDS011;58587;53.034;18.576;2024-02-21T00:48:06;20.58;;;5.53;;
70927;SDS011;58587;53.034;18.576;2024-02-21T00:50:31;22.13;;;5.20;;
70927;SDS011;58587;53.034;18.576;2024-02-21T00:52:57;15.30;;;4.60;;
70927;SDS011;58587;53.034;18.576;2024-02-21T00:55:22;19.53;;;4.83;;
70927;SDS011;58587;53.034;18.576;2024-02-21T00:57:48;20.73;;;4.80;;
70927;SDS011;58587;53.034;18.576;2024-02-21T01:00:13;19.83;;;5.17;;
70927;SDS011;58587;53.034;18.576;2024-02-21T01:02:39;20.83;;;5.13;;
70927;SDS011;58587;53.034;18.576;2024-02-21T01:05:04;11.37;;;4.27;;
70927;SDS011;58587;53.034;18.576;2024-02-21T01:07:30;14.65;;;4.68;;
70927;SDS011;58587;53.034;18.576;2024-02-21T01:09:55;19.13;;;4.80;;
70927;SDS011;58587;53.034;18.576;2024-02-21T01:12:20;20.60;;;4.67;;
70927;SDS011;58587;53.034;18.576;2024-02-21T01:14:46;13.60;;;5.07;;
70927;SDS011;58587;53.034;18.576;2024-02-21T01:17:11;17.83;;;4.50;;
70927;SDS011;58587;53.034;18.576;2024-02-21T01:19:37;18.73;;;4.68;;
70927;SDS011;58587;53.034;18.576;2024-02-21T01:22:03;14.45;;;4.40;;
70927;SDS011;58587;53.034;18.576;2024-02-21T01:24:29;13.43;;;4.83;;
70927;SDS011;58587;53.034;18.576;2024-02-21T01:26:54;15.55;;;5.07;;
70927;SDS011;58587;53.034;18.576;2024-02-21T01:29:19;11.57;;;4.97;;
70927;SDS011;58587;53.034;18.576;2024-02-21T01:31:45;23.23;;;5.23;;
70927;SDS011;58587;53.034;18.576;2024-02-21T01:34:10;16.83;;;5.87;;
70927;SDS011;58587;53.034;18.576;2024-02-21T01:36:36;16.07;;;5.27;;
70927;SDS011;58587;53.034;18.576;2024-02-21T01:39:01;19.23;;;5.37;;
70927;SDS011;58587;53.034;18.576;2024-02-21T01:41:29;15.25;;;4.63;;
70927;SDS011;58587;53.034;18.576;2024-02-21T01:43:55;15.10;;;5.03;;
70927;SDS011;58587;53.034;18.576;2024-02-21T01:46:20;16.73;;;5.97;;
70927;SDS011;58587;53.034;18.576;2024-02-21T01:48:45;16.23;;;5.43;;
70927;SDS011;58587;53.034;18.576;2024-02-21T01:51:11;18.93;;;5.80;;
70927;SDS011;58587;53.034;18.576;2024-02-21T01:53:38;16.73;;;5.70;;
70927;SDS011;58587;53.034;18.576;2024-02-21T01:56:08;16.38;;;5.88;;
70927;SDS011;58587;53.034;18.576;2024-02-21T01:58:33;19.27;;;6.47;;
70927;SDS011;58587;53.034;18.576;2024-02-21T02:01:02;16.60;;;6.55;;
70927;SDS011;58587;53.034;18.576;2024-02-21T02:03:28;25.90;;;6.70;;
70927;SDS011;58587;53.034;18.576;2024-02-21T02:05:54;23.73;;;6.43;;
70927;SDS011;58587;53.034;18.576;2024-02-21T02:08:20;22.13;;;6.87;;
70927;SDS011;58587;53.034;18.576;2024-02-21T02:10:47;20.70;;;6.70;;
70927;SDS011;58587;53.034;18.576;2024-02-21T02:13:12;25.73;;;7.60;;
70927;SDS011;58587;53.034;18.576;2024-02-21T02:15:44;19.27;;;7.23;;
70927;SDS011;58587;53.034;18.576;2024-02-21T02:18:11;20.98;;;7.78;;
70927;SDS011;58587;53.034;18.576;2024-02-21T02:20:37;24.90;;;7.18;;
70927;SDS011;58587;53.034;18.576;2024-02-21T02:23:09;22.17;;;7.85;;
70927;SDS011;58587;53.034;18.576;2024-02-21T02:25:36;25.58;;;8.07;;
70927;SDS011;58587;53.034;18.576;2024-02-21T02:28:08;26.83;;;8.00;;
70927;SDS011;58587;53.034;18.576;2024-02-21T02:30:34;22.92;;;7.88;;
70927;SDS011;58587;53.034;18.576;2024-02-21T02:33:01;27.50;;;7.72;;
70927;SDS011;58587;53.034;18.576;2024-02-21T02:35:27;24.52;;;7.82;;
70927;SDS011;58587;53.034;18.576;2024-02-21T02:37:52;29.00;;;7.50;;
70927;SDS011;58587;53.034;18.576;2024-02-21T02:40:18;23.73;;;7.70;;
70927;SDS011;58587;53.034;18.576;2024-02-21T02:42:44;34.63;;;8.25;;
70927;SDS011;58587;53.034;18.576;2024-02-21T02:45:09;20.80;;;6.83;;
70927;SDS011;58587;53.034;18.576;2024-02-21T02:47:34;35.43;;;7.60;;
70927;SDS011;58587;53.034;18.576;2024-02-21T02:50:00;26.17;;;7.37;;
70927;SDS011;58587;53.034;18.576;2024-02-21T02:52:26;25.60;;;7.03;;
70927;SDS011;58587;53.034;18.576;2024-02-21T02:54:51;35.60;;;19.17;;
70927;SDS011;58587;53.034;18.576;2024-02-21T02:57:17;31.42;;;9.02;;
70927;SDS011;58587;53.034;18.576;2024-02-21T02:59:49;26.13;;;7.03;;
70927;SDS011;58587;53.034;18.576;2024-02-21T03:02:15;29.80;;;7.47;;
70927;SDS011;58587;53.034;18.576;2024-02-21T03:04:41;24.97;;;6.40;;
70927;SDS011;58587;53.034;18.576;2024-02-21T03:07:06;30.33;;;6.90;;
70927;SDS011;58587;53.034;18.576;2024-02-21T03:09:31;26.83;;;6.97;;
70927;SDS011;58587;53.034;18.576;2024-02-21T03:11:57;21.58;;;6.22;;
70927;SDS011;58587;53.034;18.576;2024-02-21T03:14:27;24.67;;;6.18;;
70927;SDS011;58587;53.034;18.576;2024-02-21T03:16:53;26.30;;;6.90;;
70927;SDS011;58587;53.034;18.576;2024-02-21T03:19:18;24.73;;;6.53;;
70927;SDS011;58587;53.034;18.576;2024-02-21T03:21:44;25.13;;;6.53;;
70927;SDS011;58587;53.034;18.576;2024-02-21T03:24:09;24.33;;;6.97;;
70927;SDS011;58587;53.034;18.576;2024-02-21T03:26:34;26.88;;;6.38;;
70927;SDS011;58587;53.034;18.576;2024-02-21T03:29:00;22.75;;;6.40;;
70927;SDS011;58587;53.034;18.576;2024-02-21T03:31:25;25.10;;;6.33;;
70927;SDS011;58587;53.034;18.576;2024-02-21T03:33:50;21.83;;;5.97;;
70927;SDS011;58587;53.034;18.576;2024-02-21T03:36:16;22.90;;;6.80;;
70927;SDS011;58587;53.034;18.576;2024-02-21T03:38:41;32.00;;;6.87;;
70927;SDS011;58587;53.034;18.576;2024-02-21T03:41:06;25.73;;;6.60;;
70927;SDS011;58587;53.034;18.576;2024-02-21T03:43:32;24.57;;;6.87;;
70927;SDS011;58587;53.034;18.576;2024-02-21T03:45:57;20.98;;;6.60;;
70927;SDS011;58587;53.034;18.576;2024-02-21T03:48:23;22.87;;;6.57;;
70927;SDS011;58587;53.034;18.576;2024-02-21T03:50:48;28.20;;;6.83;;
70927;SDS011;58587;53.034;18.576;2024-02-21T03:53:13;21.10;;;6.30;;
70927;SDS011;58587;53.034;18.576;2024-02-21T03:55:39;21.50;;;6.93;;
70927;SDS011;58587;53.034;18.576;2024-02-21T03:58:04;25.03;;;7.00;;
70927;SDS011;58587;53.034;18.576;2024-02-21T04:00:29;23.33;;;6.82;;
70927;SDS011;58587;53.034;18.576;2024-02-21T04:02:54;23.23;;;6.50;;
70927;SDS011;58587;53.034;18.576;2024-02-21T04:05:20;24.53;;;6.67;;
70927;SDS011;58587;53.034;18.576;2024-02-21T04:07:46;22.35;;;6.68;;
70927;SDS011;58587;53.034;18.576;2024-02-21T04:10:11;24.60;;;7.50;;
70927;SDS011;58587;53.034;18.576;2024-02-21T04:12:37;30.10;;;7.33;;
70927;SDS011;58587;53.034;18.576;2024-02-21T04:15:03;27.00;;;7.25;;
70927;SDS011;58587;53.034;18.576;2024-02-21T04:17:29;29.93;;;8.00;;
70927;SDS011;58587;53.034;18.576;2024-02-21T04:20:00;29.92;;;6.95;;
70927;SDS011;58587;53.034;18.576;2024-02-21T04:22:30;35.80;;;8.40;;
70927;SDS011;58587;53.034;18.576;2024-02-21T04:24:57;26.65;;;8.50;;
70927;SDS011;58587;53.034;18.576;2024-02-21T04:27:24;30.10;;;7.68;;
70927;SDS011;58587;53.034;18.576;2024-02-21T04:29:49;31.33;;;8.00;;
70927;SDS011;58587;53.034;18.576;2024-02-21T04:32:15;25.40;;;7.23;;
70927;SDS011;58587;53.034;18.576;2024-02-21T04:34:40;29.73;;;7.77;;
70927;SDS011;58587;53.034;18.576;2024-02-21T04:37:06;27.83;;;7.13;;
70927;SDS011;58587;53.034;18.576;2024-02-21T04:39:31;26.27;;;7.03;;
70927;SDS011;58587;53.034;18.576;2024-02-21T04:41:57;25.92;;;6.78;;
70927;SDS011;58587;53.034;18.576;2024-02-21T04:44:22;25.60;;;7.05;;
70927;SDS011;58587;53.034;18.576;2024-02-21T04:46:48;29.03;;;6.40;;
70927;SDS011;58587;53.034;18.576;2024-02-21T04:49:13;29.97;;;7.30;;
70927;SDS011;58587;53.034;18.576;2024-02-21T04:51:39;32.90;;;7.27;;
70927;SDS011;58587;53.034;18.576;2024-02-21T04:54:05;34.13;;;6.68;;
70927;SDS011;58587;53.034;18.576;2024-02-21T04:56:31;34.13;;;7.90;;
70927;SDS011;58587;53.034;18.576;2024-02-21T04:58:56;21.57;;;7.00;;
70927;SDS011;58587;53.034;18.576;2024-02-21T05:01:21;29.15;;;7.72;;
70927;SDS011;58587;53.034;18.576;2024-02-21T05:03:47;36.22;;;10.57;;
70927;SDS011;58587;53.034;18.576;2024-02-21T05:06:12;29.23;;;8.87;;
70927;SDS011;58587;53.034;18.576;2024-02-21T05:08:37;31.13;;;8.57;;
70927;SDS011;58587;53.034;18.576;2024-02-21T05:11:03;33.50;;;8.33;;
70927;SDS011;58587;53.034;18.576;2024-02-21T05:13:28;29.57;;;8.53;;
70927;SDS011;58587;53.034;18.576;2024-02-21T05:15:54;30.63;;;7.93;;
70927;SDS011;58587;53.034;18.576;2024-02-21T05:18:19;31.97;;;8.07;;
70927;SDS011;58587;53.034;18.576;2024-02-21T05:20:45;27.73;;;7.75;;
70927;SDS011;58587;53.034;18.576;2024-02-21T05:23:11;29.90;;;6.90;;
70927;SDS011;58587;53.034;18.576;2024-02-21T05:25:36;32.15;;;7.88;;
70927;SDS011;58587;53.034;18.576;2024-02-21T05:28:02;23.43;;;7.27;;
70927;SDS011;58587;53.034;18.576;2024-02-21T05:30:28;26.95;;;7.35;;
70927;SDS011;58587;53.034;18.576;2024-02-21T05:32:54;31.85;;;8.68;;
70927;SDS011;58587;53.034;18.576;2024-02-21T05:35:19;25.17;;;7.13;;
70927;SDS011;58587;53.034;18.576;2024-02-21T05:37:49;26.98;;;7.78;;
70927;SDS011;58587;53.034;18.576;2024-02-21T05:40:17;23.73;;;6.97;;
70927;SDS011;58587;53.034;18.576;2024-02-21T05:42:43;24.85;;;7.68;;
70927;SDS011;58587;53.034;18.576;2024-02-21T05:45:08;21.27;;;6.50;;
70927;SDS011;58587;53.034;18.576;2024-02-21T05:47:34;28.57;;;7.87;;
70927;SDS011;58587;53.034;18.576;2024-02-21T05:50:02;21.42;;;6.28;;
70927;SDS011;58587;53.034;18.576;2024-02-21T05:52:27;23.15;;;7.35;;
70927;SDS011;58587;53.034;18.576;2024-02-21T05:54:53;23.75;;;7.35;;
70927;SDS011;58587;53.034;18.576;2024-02-21T05:57:18;23.83;;;7.90;;
70927;SDS011;58587;53.034;18.576;2024-02-21T05:59:43;23.30;;;7.73;;
70927;SDS011;58587;53.034;18.576;2024-02-21T06:02:09;28.20;;;8.97;;
70927;SDS011;58587;53.034;18.576;2024-02-21T06:04:34;24.30;;;8.47;;
70927;SDS011;58587;53.034;18.576;2024-02-21T06:07:00;26.95;;;8.13;;
70927;SDS011;58587;53.034;18.576;2024-02-21T06:09:26;22.10;;;8.73;;
70927;SDS011;58587;53.034;18.576;2024-02-21T06:11:52;31.45;;;9.38;;
70927;SDS011;58587;53.034;18.576;2024-02-21T06:14:18;26.30;;;8.60;;
70927;SDS011;58587;53.034;18.576;2024-02-21T06:16:44;29.52;;;8.77;;
70927;SDS011;58587;53.034;18.576;2024-02-21T06:19:10;28.57;;;8.90;;
70927;SDS011;58587;53.034;18.576;2024-02-21T06:21:35;28.03;;;9.40;;
70927;SDS011;58587;53.034;18.576;2024-02-21T06:24:01;28.33;;;9.68;;
70927;SDS011;58587;53.034;18.576;2024-02-21T06:26:27;29.58;;;9.27;;
70927;SDS011;58587;53.034;18.576;2024-02-21T06:28:52;33.13;;;9.90;;
70927;SDS011;58587;53.034;18.576;2024-02-21T06:31:18;33.43;;;10.83;;
70927;SDS011;58587;53.034;18.576;2024-02-21T06:33:43;29.60;;;10.97;;
70927;SDS011;58587;53.034;18.576;2024-02-21T06:36:08;37.10;;;10.90;;
70927;SDS011;58587;53.034;18.576;2024-02-21T06:38:34;34.07;;;10.87;;
70927;SDS011;58587;53.034;18.576;2024-02-21T06:40:59;29.50;;;10.40;;
70927;SDS011;58587;53.034;18.576;2024-02-21T06:43:25;35.88;;;11.35;;
70927;SDS011;58587;53.034;18.576;2024-02-21T06:45:51;33.10;;;11.98;;
70927;SDS011;58587;53.034;18.576;2024-02-21T06:48:17;31.02;;;10.90;;
70927;SDS011;58587;53.034;18.576;2024-02-21T06:50:43;35.97;;;12.32;;
70927;SDS011;58587;53.034;18.576;2024-02-21T06:53:09;32.43;;;12.27;;
70927;SDS011;58587;53.034;18.576;2024-02-21T06:55:34;32.63;;;12.43;;
70927;SDS011;58587;53.034;18.576;2024-02-21T06:58:00;32.55;;;12.07;;
70927;SDS011;58587;53.034;18.576;2024-02-21T07:00:26;37.63;;;13.75;;
70927;SDS011;58587;53.034;18.576;2024-02-21T07:02:53;34.85;;;11.88;;
70927;SDS011;58587;53.034;18.576;2024-02-21T07:05:18;32.73;;;12.53;;
70927;SDS011;58587;53.034;18.576;2024-02-21T07:07:44;33.75;;;12.50;;
70927;SDS011;58587;53.034;18.576;2024-02-21T07:10:09;39.97;;;12.73;;
70927;SDS011;58587;53.034;18.576;2024-02-21T07:12:35;30.80;;;13.07;;
70927;SDS011;58587;53.034;18.576;2024-02-21T07:15:03;41.00;;;13.32;;
70927;SDS011;58587;53.034;18.576;2024-02-21T07:17:29;32.20;;;12.70;;
70927;SDS011;58587;53.034;18.576;2024-02-21T07:19:55;40.23;;;12.70;;
70927;SDS011;58587;53.034;18.576;2024-02-21T07:22:21;35.92;;;12.70;;
70927;SDS011;58587;53.034;18.576;2024-02-21T07:24:47;38.93;;;13.70;;
70927;SDS011;58587;53.034;18.576;2024-02-21T07:27:14;32.67;;;13.43;;
70927;SDS011;58587;53.034;18.576;2024-02-21T07:29:40;38.45;;;12.80;;
70927;SDS011;58587;53.034;18.576;2024-02-21T07:32:05;39.73;;;13.43;;
70927;SDS011;58587;53.034;18.576;2024-02-21T07:34:31;34.65;;;13.55;;
70927;SDS011;58587;53.034;18.576;2024-02-21T07:36:56;43.63;;;13.37;;
70927;SDS011;58587;53.034;18.576;2024-02-21T07:39:22;43.73;;;13.53;;
70927;SDS011;58587;53.034;18.576;2024-02-21T07:41:47;32.30;;;13.20;;
70927;SDS011;58587;53.034;18.576;2024-02-21T07:44:14;40.17;;;13.57;;
70927;SDS011;58587;53.034;18.576;2024-02-21T07:46:40;34.97;;;13.60;;
70927;SDS011;58587;53.034;18.576;2024-02-21T07:49:05;37.03;;;14.33;;
70927;SDS011;58587;53.034;18.576;2024-02-21T07:51:30;37.07;;;12.83;;
70927;SDS011;58587;53.034;18.576;2024-02-21T07:53:56;35.43;;;13.03;;
70927;SDS011;58587;53.034;18.576;2024-02-21T07:56:21;37.05;;;13.75;;
70927;SDS011;58587;53.034;18.576;2024-02-21T07:58:46;34.13;;;13.90;;
70927;SDS011;58587;53.034;18.576;2024-02-21T08:01:12;40.80;;;14.73;;
70927;SDS011;58587;53.034;18.576;2024-02-21T08:03:43;37.13;;;14.35;;
70927;SDS011;58587;53.034;18.576;2024-02-21T08:06:11;45.10;;;14.53;;
70927;SDS011;58587;53.034;18.576;2024-02-21T08:08:37;41.55;;;14.57;;
70927;SDS011;58587;53.034;18.576;2024-02-21T08:11:02;36.30;;;13.90;;
70927;SDS011;58587;53.034;18.576;2024-02-21T08:13:28;47.33;;;15.97;;
70927;SDS011;58587;53.034;18.576;2024-02-21T08:15:53;43.03;;;16.77;;
70927;SDS011;58587;53.034;18.576;2024-02-21T08:18:19;47.58;;;15.93;;
70927;SDS011;58587;53.034;18.576;2024-02-21T08:20:44;41.00;;;15.70;;
70927;SDS011;58587;53.034;18.576;2024-02-21T08:23:10;39.33;;;14.97;;
70927;SDS011;58587;53.034;18.576;2024-02-21T08:25:35;39.80;;;15.30;;
70927;SDS011;58587;53.034;18.576;2024-02-21T08:28:00;42.53;;;15.63;;
70927;SDS011;58587;53.034;18.576;2024-02-21T08:30:26;35.55;;;14.55;;
70927;SDS011;58587;53.034;18.576;2024-02-21T08:32:52;35.57;;;15.00;;
70927;SDS011;58587;53.034;18.576;2024-02-21T08:35:19;43.90;;;15.40;;
70927;SDS011;58587;53.034;18.576;2024-02-21T08:37:45;37.28;;;14.63;;
70927;SDS011;58587;53.034;18.576;2024-02-21T08:40:13;45.58;;;15.35;;
70927;SDS011;58587;53.034;18.576;2024-02-21T08:42:38;43.40;;;15.00;;
70927;SDS011;58587;53.034;18.576;2024-02-21T08:45:04;46.03;;;14.50;;
70927;SDS011;58587;53.034;18.576;2024-02-21T08:47:30;34.17;;;13.23;;
70927;SDS011;58587;53.034;18.576;2024-02-21T08:49:56;33.53;;;12.40;;
70927;SDS011;58587;53.034;18.576;2024-02-21T08:52:21;38.10;;;13.13;;
70927;SDS011;58587;53.034;18.576;2024-02-21T08:54:46;33.57;;;12.77;;
70927;SDS011;58587;53.034;18.576;2024-02-21T08:57:12;31.53;;;11.83;;
70927;SDS011;58587;53.034;18.576;2024-02-21T08:59:39;29.95;;;12.65;;
70927;SDS011;58587;53.034;18.576;2024-02-21T09:02:04;36.63;;;12.70;;
70927;SDS011;58587;53.034;18.576;2024-02-21T09:04:32;36.10;;;13.43;;
70927;SDS011;58587;53.034;18.576;2024-02-21T09:06:58;32.85;;;12.65;;
70927;SDS011;58587;53.034;18.576;2024-02-21T09:09:23;37.55;;;13.63;;
70927;SDS011;58587;53.034;18.576;2024-02-21T09:11:49;29.77;;;12.97;;
70927;SDS011;58587;53.034;18.576;2024-02-21T09:14:14;32.90;;;13.10;;
70927;SDS011;58587;53.034;18.576;2024-02-21T09:16:40;30.60;;;12.83;;
70927;SDS011;58587;53.034;18.576;2024-02-21T09:19:05;28.95;;;12.60;;
70927;SDS011;58587;53.034;18.576;2024-02-21T09:21:31;29.93;;;13.13;;
70927;SDS011;58587;53.034;18.576;2024-02-21T09:23:56;31.00;;;13.40;;
70927;SDS011;58587;53.034;18.576;2024-02-21T09:26:21;35.70;;;11.87;;
70927;SDS011;58587;53.034;18.576;2024-02-21T09:28:47;31.43;;;12.57;;
70927;SDS011;58587;53.034;18.576;2024-02-21T09:31:12;32.00;;;12.87;;
70927;SDS011;58587;53.034;18.576;2024-02-21T09:33:37;29.77;;;11.93;;
70927;SDS011;58587;53.034;18.576;2024-02-21T09:36:03;33.05;;;13.57;;
70927;SDS011;58587;53.034;18.576;2024-02-21T09:38:30;35.63;;;12.60;;
70927;SDS011;58587;53.034;18.576;2024-02-21T09:40:58;31.15;;;14.30;;
70927;SDS011;58587;53.034;18.576;2024-02-21T09:43:57;31.88;;;12.27;;
70927;SDS011;58587;53.034;18.576;2024-02-21T09:52:01;36.23;;;12.13;;
70927;SDS011;58587;53.034;18.576;2024-02-21T09:54:28;31.52;;;11.27;;
70927;SDS011;58587;53.034;18.576;2024-02-21T09:56:57;33.38;;;12.30;;
70927;SDS011;58587;53.034;18.576;2024-02-21T09:59:23;31.35;;;12.05;;
70927;SDS011;58587;53.034;18.576;2024-02-21T10:01:49;29.17;;;13.07;;
70927;SDS011;58587;53.034;18.576;2024-02-21T10:04:16;30.47;;;13.20;;
70927;SDS011;58587;53.034;18.576;2024-02-21T10:06:41;32.90;;;12.88;;
70927;SDS011;58587;53.034;18.576;2024-02-21T10:09:06;30.77;;;12.37;;
70927;SDS011;58587;53.034;18.576;2024-02-21T10:11:32;30.57;;;12.80;;
70927;SDS011;58587;53.034;18.576;2024-02-21T10:14:04;37.72;;;13.35;;
70927;SDS011;58587;53.034;18.576;2024-02-21T10:16:30;29.20;;;12.63;;
70927;SDS011;58587;53.034;18.576;2024-02-21T10:18:56;33.97;;;13.13;;
70927;SDS011;58587;53.034;18.576;2024-02-21T10:21:21;30.60;;;13.23;;
70927;SDS011;58587;53.034;18.576;2024-02-21T10:23:49;32.07;;;13.30;;
70927;SDS011;58587;53.034;18.576;2024-02-21T10:26:17;31.45;;;13.38;;
70927;SDS011;58587;53.034;18.576;2024-02-21T10:28:43;32.03;;;13.15;;
70927;SDS011;58587;53.034;18.576;2024-02-21T10:31:11;35.42;;;14.73;;
70927;SDS011;58587;53.034;18.576;2024-02-21T10:33:53;32.50;;;15.07;;
70927;SDS011;58587;53.034;18.576;2024-02-21T10:36:19;34.00;;;14.05;;
70927;SDS011;58587;53.034;18.576;2024-02-21T10:38:44;34.40;;;12.60;;
70927;SDS011;58587;53.034;18.576;2024-02-21T10:41:09;33.03;;;13.10;;
70927;SDS011;58587;53.034;18.576;2024-02-21T10:43:39;28.45;;;12.90;;
70927;SDS011;58587;53.034;18.576;2024-02-21T10:46:06;28.58;;;12.73;;
70927;SDS011;58587;53.034;18.576;2024-02-21T10:48:42;28.30;;;11.80;;
70927;SDS011;58587;53.034;18.576;2024-02-21T10:51:19;24.90;;;11.25;;
70927;SDS011;58587;53.034;18.576;2024-02-21T10:54:30;20.83;;;11.30;;
70927;SDS011;58587;53.034;18.576;2024-02-21T10:56:52;30.45;;;13.65;;
70927;SDS011;58587;53.034;18.576;2024-02-21T10:59:21;25.70;;;11.43;;
70927;SDS011;58587;53.034;18.576;2024-02-21T11:01:48;22.83;;;10.88;;
70927;SDS011;58587;53.034;18.576;2024-02-21T11:04:14;25.50;;;10.50;;
70927;SDS011;58587;53.034;18.576;2024-02-21T11:06:39;30.73;;;12.23;;
70927;SDS011;58587;53.034;18.576;2024-02-21T11:09:06;27.35;;;13.75;;
70927;SDS011;58587;53.034;18.576;2024-02-21T11:11:33;33.75;;;16.08;;
70927;SDS011;58587;53.034;18.576;2024-02-21T11:14:18;30.20;;;11.70;;
70927;SDS011;58587;53.034;18.576;2024-02-21T11:16:45;27.92;;;13.63;;
70927;SDS011;58587;53.034;18.576;2024-02-21T11:19:24;20.95;;;10.30;;
70927;SDS011;58587;53.034;18.576;2024-02-21T11:21:51;31.40;;;15.80;;
70927;SDS011;58587;53.034;18.576;2024-02-21T11:26:53;27.48;;;13.60;;
70927;SDS011;58587;53.034;18.576;2024-02-21T11:29:25;25.40;;;14.43;;
70927;SDS011;58587;53.034;18.576;2024-02-21T11:31:51;31.77;;;16.38;;
70927;SDS011;58587;53.034;18.576;2024-02-21T11:34:17;22.43;;;10.07;;
70927;SDS011;58587;53.034;18.576;2024-02-21T11:36:47;23.23;;;10.02;;
70927;SDS011;58587;53.034;18.576;2024-02-21T11:42:02;23.40;;;10.32;;
70927;SDS011;58587;53.034;18.576;2024-02-21T11:44:32;24.52;;;12.80;;
70927;SDS011;58587;53.034;18.576;2024-02-21T11:46:59;43.13;;;22.42;;
70927;SDS011;58587;53.034;18.576;2024-02-21T11:49:25;21.33;;;11.00;;
70927;SDS011;58587;53.034;18.576;2024-02-21T11:52:00;29.88;;;12.23;;
70927;SDS011;58587;53.034;18.576;2024-02-21T11:54:29;25.27;;;11.07;;
70927;SDS011;58587;53.034;18.576;2024-02-21T11:56:57;22.48;;;11.10;;
70927;SDS011;58587;53.034;18.576;2024-02-21T11:59:23;26.10;;;11.52;;
70927;SDS011;58587;53.034;18.576;2024-02-21T12:01:49;31.63;;;14.73;;
70927;SDS011;58587;53.034;18.576;2024-02-21T12:04:16;28.45;;;13.25;;
70927;SDS011;58587;53.034;18.576;2024-02-21T12:06:44;28.60;;;12.60;;
70927;SDS011;58587;53.034;18.576;2024-02-21T12:09:13;47.08;;;26.83;;
70927;SDS011;58587;53.034;18.576;2024-02-21T12:11:39;25.20;;;11.43;;
70927;SDS011;58587;53.034;18.576;2024-02-21T12:14:04;24.97;;;11.77;;
70927;SDS011;58587;53.034;18.576;2024-02-21T12:16:33;26.17;;;10.10;;
70927;SDS011;58587;53.034;18.576;2024-02-21T12:18:59;78.63;;;23.83;;
70927;SDS011;58587;53.034;18.576;2024-02-21T12:21:31;62.67;;;18.98;;
70927;SDS011;58587;53.034;18.576;2024-02-21T12:23:58;25.38;;;11.50;;
70927;SDS011;58587;53.034;18.576;2024-02-21T12:26:24;21.88;;;10.15;;
70927;SDS011;58587;53.034;18.576;2024-02-21T12:28:50;21.45;;;10.07;;
70927;SDS011;58587;53.034;18.576;2024-02-21T12:31:16;22.77;;;10.53;;
70927;SDS011;58587;53.034;18.576;2024-02-21T12:33:42;27.27;;;11.43;;
70927;SDS011;58587;53.034;18.576;2024-02-21T12:36:08;28.15;;;11.00;;
70927;SDS011;58587;53.034;18.576;2024-02-21T12:38:34;23.48;;;10.52;;
70927;SDS011;58587;53.034;18.576;2024-02-21T12:40:59;24.37;;;10.83;;
70927;SDS011;58587;53.034;18.576;2024-02-21T12:43:25;22.13;;;9.82;;
70927;SDS011;58587;53.034;18.576;2024-02-21T12:45:51;22.03;;;10.07;;
70927;SDS011;58587;53.034;18.576;2024-02-21T12:48:16;21.70;;;10.23;;
70927;SDS011;58587;53.034;18.576;2024-02-21T12:50:48;27.87;;;10.80;;
70927;SDS011;58587;53.034;18.576;2024-02-21T12:53:18;24.50;;;10.85;;
70927;SDS011;58587;53.034;18.576;2024-02-21T12:55:46;33.78;;;13.73;;
70927;SDS011;58587;53.034;18.576;2024-02-21T12:58:14;21.00;;;10.27;;
70927;SDS011;58587;53.034;18.576;2024-02-21T13:00:40;25.67;;;10.93;;
70927;SDS011;58587;53.034;18.576;2024-02-21T13:03:06;22.55;;;10.95;;
70927;SDS011;58587;53.034;18.576;2024-02-21T13:05:31;20.77;;;10.00;;
70927;SDS011;58587;53.034;18.576;2024-02-21T13:07:57;27.97;;;14.50;;
70927;SDS011;58587;53.034;18.576;2024-02-21T13:10:26;22.02;;;10.32;;
70927;SDS011;58587;53.034;18.576;2024-02-21T13:12:51;41.50;;;16.27;;
70927;SDS011;58587;53.034;18.576;2024-02-21T13:15:17;56.15;;;18.27;;
70927;SDS011;58587;53.034;18.576;2024-02-21T13:17:45;23.95;;;11.18;;
70927;SDS011;58587;53.034;18.576;2024-02-21T13:20:11;23.13;;;10.30;;
70927;SDS011;58587;53.034;18.576;2024-02-21T13:22:36;22.23;;;10.00;;
70927;SDS011;58587;53.034;18.576;2024-02-21T13:25:02;19.90;;;10.65;;
70927;SDS011;58587;53.034;18.576;2024-02-21T13:27:28;25.00;;;10.50;;
70927;SDS011;58587;53.034;18.576;2024-02-21T13:29:54;21.47;;;10.43;;
70927;SDS011;58587;53.034;18.576;2024-02-21T13:32:19;21.70;;;10.00;;
70927;SDS011;58587;53.034;18.576;2024-02-21T13:34:45;20.50;;;9.83;;
70927;SDS011;58587;53.034;18.576;2024-02-21T13:37:10;20.40;;;10.10;;
70927;SDS011;58587;53.034;18.576;2024-02-21T13:39:36;24.23;;;11.40;;
70927;SDS011;58587;53.034;18.576;2024-02-21T13:42:02;29.77;;;11.00;;
70927;SDS011;58587;53.034;18.576;2024-02-21T13:44:30;27.70;;;10.30;;
70927;SDS011;58587;53.034;18.576;2024-02-21T13:46:56;26.55;;;10.90;;
70927;SDS011;58587;53.034;18.576;2024-02-21T13:49:21;28.13;;;10.73;;
70927;SDS011;58587;53.034;18.576;2024-02-21T13:51:46;28.30;;;11.47;;
70927;SDS011;58587;53.034;18.576;2024-02-21T13:54:12;30.73;;;12.53;;
70927;SDS011;58587;53.034;18.576;2024-02-21T13:56:41;37.03;;;13.75;;
70927;SDS011;58587;53.034;18.576;2024-02-21T13:59:07;30.70;;;12.07;;
70927;SDS011;58587;53.034;18.576;2024-02-21T14:01:33;27.23;;;11.38;;
70927;SDS011;58587;53.034;18.576;2024-02-21T14:03:58;25.73;;;11.00;;
70927;SDS011;58587;53.034;18.576;2024-02-21T14:06:24;31.88;;;14.95;;
70927;SDS011;58587;53.034;18.576;2024-02-21T14:08:49;28.25;;;10.75;;
70927;SDS011;58587;53.034;18.576;2024-02-21T14:11:15;26.43;;;12.70;;
70927;SDS011;58587;53.034;18.576;2024-02-21T14:13:40;29.17;;;11.97;;
70927;SDS011;58587;53.034;18.576;2024-02-21T14:16:09;32.00;;;11.97;;
70927;SDS011;58587;53.034;18.576;2024-02-21T14:18:41;25.00;;;11.10;;
70927;SDS011;58587;53.034;18.576;2024-02-21T14:21:07;63.38;;;21.70;;